sensor_id;sensor_type;location;lat;lon;timestamp;P1;durP1;ratioP1;P2;durP2;ratioP2
13687;SDS011;6916;51.504;7.416;2024-02-14T00:08:18;134.35;;;86.30;;
13687;SDS011;6916;51.504;7.416;2024-02-14T00:23:22;108.97;;;71.65;;
13687;SDS011;6916;51.504;7.416;2024-02-14T00:38:25;94.35;;;59.97;;
13687;SDS011;6916;51.504;7.416;2024-02-14T00:53:28;78.75;;;51.58;;
13687;SDS011;6916;51.504;7.416;2024-02-14T01:08:31;73.28;;;47.55;;
13687;SDS011;6916;51.504;7.416;2024-02-14T01:23:35;68.72;;;45.20;;
13687;SDS011;6916;51.504;7.416;2024-02-14T01:38:38;64.47;;;43.05;;
13687;SDS011;6916;51.504;7.416;2024-02-14T01:53:41;62.63;;;40.50;;
13687;SDS011;6916;51.504;7.416;2024-02-14T02:08:44;55.60;;;37.92;;
13687;SDS011;6916;51.504;7.416;2024-02-14T02:23:47;55.08;;;36.67;;
13687;SDS011;6916;51.504;7.416;2024-02-14T02:38:50;52.75;;;35.13;;
13687;SDS011;6916;51.504;7.416;2024-02-14T02:53:54;48.10;;;32.50;;
13687;SDS011;6916;51.504;7.416;2024-02-14T03:08:57;45.90;;;31.48;;
13687;SDS011;6916;51.504;7.416;2024-02-14T03:24:00;39.35;;;28.23;;
13687;SDS011;6916;51.504;7.416;2024-02-14T03:39:05;40.25;;;27.55;;
13687;SDS011;6916;51.504;7.416;2024-02-14T03:54:08;32.17;;;23.25;;
13687;SDS011;6916;51.504;7.416;2024-02-14T04:09:12;34.67;;;22.67;;
13687;SDS011;6916;51.504;7.416;2024-02-14T04:24:15;29.45;;;21.30;;
13687;SDS011;6916;51.504;7.416;2024-02-14T04:39:18;27.30;;;19.15;;
13687;SDS011;6916;51.504;7.416;2024-02-14T04:54:21;23.25;;;16.88;;
13687;SDS011;6916;51.504;7.416;2024-02-14T05:09:24;22.35;;;16.88;;
13687;SDS011;6916;51.504;7.416;2024-02-14T05:24:27;34.85;;;24.52;;
13687;SDS011;6916;51.504;7.416;2024-02-14T05:39:32;106.07;;;72.63;;
13687;SDS011;6916;51.504;7.416;2024-02-14T05:54:35;120.43;;;69.38;;
13687;SDS011;6916;51.504;7.416;2024-02-14T06:09:38;101.72;;;66.60;;
13687;SDS011;6916;51.504;7.416;2024-02-14T06:24:41;93.00;;;59.90;;
13687;SDS011;6916;51.504;7.416;2024-02-14T06:39:44;85.80;;;57.30;;
13687;SDS011;6916;51.504;7.416;2024-02-14T06:54:47;83.57;;;56.58;;
13687;SDS011;6916;51.504;7.416;2024-02-14T07:09:50;78.80;;;53.95;;
13687;SDS011;6916;51.504;7.416;2024-02-14T07:24:53;71.32;;;49.20;;
13687;SDS011;6916;51.504;7.416;2024-02-14T07:39:56;67.80;;;47.25;;
13687;SDS011;6916;51.504;7.416;2024-02-14T07:54:59;70.30;;;45.42;;
13687;SDS011;6916;51.504;7.416;2024-02-14T08:10:03;61.58;;;43.30;;
13687;SDS011;6916;51.504;7.416;2024-02-14T08:25:07;62.30;;;42.72;;
13687;SDS011;6916;51.504;7.416;2024-02-14T08:40:11;57.65;;;40.35;;
13687;SDS011;6916;51.504;7.416;2024-02-14T08:55:14;55.63;;;39.83;;
13687;SDS011;6916;51.504;7.416;2024-02-14T09:10:20;53.33;;;37.33;;
13687;SDS011;6916;51.504;7.416;2024-02-14T09:25:23;49.38;;;35.30;;
13687;SDS011;6916;51.504;7.416;2024-02-14T09:40:26;50.20;;;34.58;;
13687;SDS011;6916;51.504;7.416;2024-02-14T09:55:29;41.47;;;31.75;;
13687;SDS011;6916;51.504;7.416;2024-02-14T10:10:34;44.15;;;31.88;;
13687;SDS011;6916;51.504;7.416;2024-02-14T10:25:37;43.47;;;31.20;;
13687;SDS011;6916;51.504;7.416;2024-02-14T10:40:41;38.35;;;28.80;;
13687;SDS011;6916;51.504;7.416;2024-02-14T10:55:45;39.38;;;27.65;;
13687;SDS011;6916;51.504;7.416;2024-02-14T11:10:54;38.10;;;27.83;;
13687;SDS011;6916;51.504;7.416;2024-02-14T11:26:01;34.72;;;25.67;;
13687;SDS011;6916;51.504;7.416;2024-02-14T11:41:04;36.13;;;26.02;;
13687;SDS011;6916;51.504;7.416;2024-02-14T11:56:08;30.08;;;22.95;;
13687;SDS011;6916;51.504;7.416;2024-02-14T12:11:11;32.22;;;22.90;;
13687;SDS011;6916;51.504;7.416;2024-02-14T12:26:14;29.30;;;21.90;;
13687;SDS011;6916;51.504;7.416;2024-02-14T12:41:21;28.05;;;21.13;;
13687;SDS011;6916;51.504;7.416;2024-02-14T12:56:24;26.80;;;20.17;;
13687;SDS011;6916;51.504;7.416;2024-02-14T13:11:27;27.83;;;20.17;;
13687;SDS011;6916;51.504;7.416;2024-02-14T13:26:32;24.65;;;18.38;;
13687;SDS011;6916;51.504;7.416;2024-02-14T13:41:35;23.40;;;17.30;;
13687;SDS011;6916;51.504;7.416;2024-02-14T13:56:39;26.33;;;18.73;;
13687;SDS011;6916;51.504;7.416;2024-02-14T14:11:42;23.55;;;17.67;;
13687;SDS011;6916;51.504;7.416;2024-02-14T14:26:46;22.45;;;17.17;;
13687;SDS011;6916;51.504;7.416;2024-02-14T14:41:49;20.63;;;15.73;;
13687;SDS011;6916;51.504;7.416;2024-02-14T14:56:54;19.65;;;15.00;;
13687;SDS011;6916;51.504;7.416;2024-02-14T15:11:57;21.38;;;15.52;;
13687;SDS011;6916;51.504;7.416;2024-02-14T15:27:00;25.13;;;9.07;;
13687;SDS011;6916;51.504;7.416;2024-02-14T15:42:04;25.65;;;17.20;;
13687;SDS011;6916;51.504;7.416;2024-02-14T15:57:07;21.42;;;14.07;;
13687;SDS011;6916;51.504;7.416;2024-02-14T16:12:11;33.28;;;21.58;;
13687;SDS011;6916;51.504;7.416;2024-02-14T16:27:16;26.25;;;18.30;;
13687;SDS011;6916;51.504;7.416;2024-02-14T16:42:19;25.25;;;14.85;;
13687;SDS011;6916;51.504;7.416;2024-02-14T16:57:22;17.77;;;13.13;;
13687;SDS011;6916;51.504;7.416;2024-02-14T17:12:26;18.08;;;12.10;;
13687;SDS011;6916;51.504;7.416;2024-02-14T17:27:30;159.10;;;95.90;;
13687;SDS011;6916;51.504;7.416;2024-02-14T17:42:33;235.38;;;146.00;;
13687;SDS011;6916;51.504;7.416;2024-02-14T17:57:36;268.45;;;171.02;;
13687;SDS011;6916;51.504;7.416;2024-02-14T18:12:39;318.83;;;212.65;;
13687;SDS011;6916;51.504;7.416;2024-02-14T18:27:42;456.38;;;319.65;;
13687;SDS011;6916;51.504;7.416;2024-02-14T18:42:45;508.50;;;373.52;;
13687;SDS011;6916;51.504;7.416;2024-02-14T18:57:49;544.15;;;400.50;;
13687;SDS011;6916;51.504;7.416;2024-02-14T19:12:52;593.95;;;452.45;;
13687;SDS011;6916;51.504;7.416;2024-02-14T19:27:55;619.28;;;470.67;;
13687;SDS011;6916;51.504;7.416;2024-02-14T19:42:58;651.53;;;502.48;;
13687;SDS011;6916;51.504;7.416;2024-02-14T19:58:02;724.63;;;557.20;;
13687;SDS011;6916;51.504;7.416;2024-02-14T20:13:06;722.40;;;560.10;;
13687;SDS011;6916;51.504;7.416;2024-02-14T20:28:09;708.55;;;546.15;;
13687;SDS011;6916;51.504;7.416;2024-02-14T20:43:13;683.13;;;532.40;;
13687;SDS011;6916;51.504;7.416;2024-02-14T20:58:17;661.67;;;509.48;;
13687;SDS011;6916;51.504;7.416;2024-02-14T21:13:21;626.05;;;483.45;;
13687;SDS011;6916;51.504;7.416;2024-02-14T21:28:24;669.40;;;523.47;;
13687;SDS011;6916;51.504;7.416;2024-02-14T21:43:27;619.63;;;480.60;;
13687;SDS011;6916;51.504;7.416;2024-02-14T21:58:31;578.83;;;445.17;;
13687;SDS011;6916;51.504;7.416;2024-02-14T22:13:34;537.90;;;406.65;;
13687;SDS011;6916;51.504;7.416;2024-02-14T22:28:38;482.55;;;364.63;;
13687;SDS011;6916;51.504;7.416;2024-02-14T22:43:41;437.73;;;338.20;;
13687;SDS011;6916;51.504;7.416;2024-02-14T22:58:46;396.15;;;299.55;;
13687;SDS011;6916;51.504;7.416;2024-02-14T23:13:49;366.30;;;276.17;;
13687;SDS011;6916;51.504;7.416;2024-02-14T23:28:53;328.98;;;246.00;;
13687;SDS011;6916;51.504;7.416;2024-02-14T23:43:57;302.63;;;220.20;;
13687;SDS011;6916;51.504;7.416;2024-02-14T23:59:00;276.08;;;198.43;;
